Macondo — 3EYB9 — position and weather

sailwx.info

Track history (hours):
 
Tides and Currents Weather Stations Pressure Air Temp Water Temp Dewpoint Dewpoint Depression Visibility Wind Speed Wind Dir Waves Ship Positions

Macondo

Last reported at 2014-Nov-03 11:32 UTC. Time now 2014-Dec-21 19:28 UTC.
Position N 19°24' W 095°51'.
Warning: this ship's position is 48 days out of date.

Length 120 m; draft 6.6 m.

Type: Ship. MMSI: 371293000.

Date/timePositionNaut miles runAvg speedWind from/ knotsBaromVisibWave heightAir tempDewpointWater temp
2014-Nov-03 11:32N 19°24' W 095°51'8 8.4
2014-Nov-03 10:34N 19°18' W 095°56'1 1.1
2014-Nov-03 09:34N 19°19' W 095°57'1 1.3
2014-Nov-03 08:33N 19°20' W 095°57'3 3.1
2014-Nov-03 07:33N 19°17' W 095°58'8 8.3
2014-Nov-03 06:33N 19°11' W 096°03'5 4.5
2014-Nov-03 05:33N 19°12' W 096°08'0 0.0
2014-Nov-03 04:33N 19°12' W 096°08'0 0.0
2014-Nov-03 03:33N 19°12' W 096°08'0 0.0
2014-Nov-03 02:33N 19°12' W 096°08'0 0.0
2014-Nov-03 01:33N 19°12' W 096°08'0 0.0
2014-Nov-03 00:33N 19°12' W 096°08'0 0.0
2014-Nov-02 23:33N 19°12' W 096°08'0 0.0
2014-Nov-02 22:33N 19°12' W 096°08'0 0.0
2014-Nov-02 21:33N 19°12' W 096°08'0 0.0
2014-Nov-02 20:34N 19°12' W 096°08'0 0.0
2014-Nov-02 19:34N 19°12' W 096°08'0 0.0
2014-Nov-02 18:34N 19°12' W 096°08'0 0.0
2014-Nov-02 17:34N 19°12' W 096°08'0 0.0
2014-Nov-02 16:33N 19°12' W 096°08'0 0.0
2014-Nov-02 15:34N 19°12' W 096°08'0 0.0
2014-Nov-02 14:34N 19°12' W 096°08'0 0.0
2014-Nov-02 13:33N 19°12' W 096°08'0 0.0
2014-Nov-02 12:34N 19°12' W 096°08'0 0.0
2014-Nov-02 11:34N 19°12' W 096°08'0 0.0
2014-Nov-02 10:34N 19°12' W 096°08'0 0.0
2014-Nov-02 09:34N 19°12' W 096°08'0 0.0
2014-Nov-02 08:33N 19°12' W 096°08'0 0.0
2014-Nov-02 07:34N 19°12' W 096°08'0 0.0
2014-Nov-02 06:34N 19°12' W 096°08'0 0.0
2014-Nov-02 05:34N 19°12' W 096°08'0 0.0
2014-Nov-02 04:34N 19°12' W 096°08'0 0.0
2014-Nov-02 03:34N 19°12' W 096°08'0 0.0
2014-Nov-02 02:34N 19°12' W 096°08'0 0.0
2014-Nov-02 01:34N 19°12' W 096°08'0 0.0
2014-Nov-02 00:34N 19°12' W 096°08'0 0.0
2014-Nov-01 23:34N 19°12' W 096°08'0 0.0
2014-Nov-01 22:34N 19°12' W 096°08'0 0.0
2014-Nov-01 21:33N 19°12' W 096°08'0 0.0
2014-Nov-01 20:34N 19°12' W 096°08'0 0.0
2014-Nov-01 19:34N 19°12' W 096°08'0 0.0
2014-Nov-01 18:33N 19°12' W 096°08'0 0.0
2014-Nov-01 17:34N 19°12' W 096°08'0 0.0
2014-Nov-01 16:34N 19°12' W 096°08'0 0.0
2014-Nov-01 15:33N 19°12' W 096°08'0 0.0
2014-Nov-01 14:34N 19°12' W 096°08'0 0.0
2014-Nov-01 13:34N 19°12' W 096°08'0 0.0
2014-Nov-01 12:33N 19°12' W 096°08'0 0.0
2014-Nov-01 11:34N 19°12' W 096°08'0 0.0
2014-Nov-01 10:34N 19°12' W 096°08'0 0.0
2014-Nov-01 09:34N 19°12' W 096°08'0 0.0
2014-Nov-01 08:34N 19°12' W 096°08'0 0.0
2014-Nov-01 07:34N 19°12' W 096°08'0 0.0
2014-Nov-01 06:34N 19°12' W 096°08'0 0.0
2014-Nov-01 05:34N 19°12' W 096°08'0 0.0
2014-Nov-01 04:34N 19°12' W 096°08'0 0.0
2014-Nov-01 03:33N 19°12' W 096°08'0 0.0
2014-Nov-01 02:33N 19°12' W 096°08'0 0.0
2014-Nov-01 01:33N 19°12' W 096°08'0 0.0
2014-Nov-01 00:34N 19°12' W 096°08'0 0.0
2014-Oct-31 23:34N 19°12' W 096°08'0 0.0
2014-Oct-31 22:33N 19°12' W 096°08'0 0.0
2014-Oct-31 21:34N 19°12' W 096°08'0 0.0
2014-Oct-31 20:33N 19°12' W 096°08'0 0.0
2014-Oct-31 19:34N 19°12' W 096°08'0 0.0
2014-Oct-31 18:33N 19°12' W 096°08'0 0.0
2014-Oct-31 17:33N 19°12' W 096°08'0 0.0
2014-Oct-31 16:33N 19°12' W 096°08'0 0.0
2014-Oct-31 15:33N 19°12' W 096°08'0 0.0
2014-Oct-31 14:33N 19°12' W 096°08'0 0.0
2014-Oct-31 13:33N 19°12' W 096°08'0 0.0
2014-Oct-31 12:33N 19°12' W 096°08'0 0.0
2014-Oct-31 11:33N 19°12' W 096°08'0 0.1
2014-Oct-31 10:33N 19°12' W 096°08'0 0.0
2014-Oct-31 09:33N 19°12' W 096°08'0 0.0
2014-Oct-31 08:33N 19°12' W 096°08'0 0.0
2014-Oct-31 07:33N 19°12' W 096°08'0 0.0
2014-Oct-31 06:33N 19°12' W 096°08'0 0.1
2014-Oct-31 05:33N 19°12' W 096°08'0 0.0
2014-Oct-31 04:33N 19°12' W 096°08'0 0.0
2014-Oct-31 03:34N 19°12' W 096°08'0 0.0
2014-Oct-31 02:33N 19°12' W 096°08'0 0.0
2014-Oct-31 01:34N 19°12' W 096°08'0 0.0
2014-Oct-31 00:33N 19°12' W 096°08'0 0.0
2014-Oct-30 23:33N 19°12' W 096°08'0 0.0
2014-Oct-30 22:33N 19°12' W 096°08'0 0.0
2014-Oct-30 21:33N 19°12' W 096°08'0 0.0
2014-Oct-30 20:33N 19°12' W 096°08'0 0.0
2014-Oct-30 19:33N 19°12' W 096°08'0 0.0
2014-Oct-30 18:33N 19°12' W 096°08'0 0.0
2014-Oct-30 17:33N 19°12' W 096°08'0 0.0
2014-Oct-30 16:33N 19°12' W 096°08'0 0.0
2014-Oct-30 15:33N 19°12' W 096°08'0 0.0
2014-Oct-30 14:33N 19°12' W 096°08'0 0.0
2014-Oct-30 13:33N 19°12' W 096°08'0 0.0
2014-Oct-30 12:33N 19°12' W 096°08'0 0.0
2014-Oct-30 11:33N 19°12' W 096°08'0 0.0
2014-Oct-30 10:33N 19°12' W 096°08'0 0.0
2014-Oct-30 09:33N 19°12' W 096°08'0 0.0
2014-Oct-30 08:33N 19°12' W 096°08'0 0.0
2014-Oct-30 07:33N 19°12' W 096°08'0 0.0
2014-Oct-30 06:33N 19°12' W 096°08'0 0.0
2014-Oct-30 05:33N 19°12' W 096°08'0 0.0
2014-Oct-30 04:33N 19°12' W 096°08'0 0.0
2014-Oct-30 03:33N 19°12' W 096°08'0 0.0
2014-Oct-30 02:33N 19°12' W 096°08'0 0.0
2014-Oct-30 01:33N 19°12' W 096°08'0 0.0
2014-Oct-30 00:33N 19°12' W 096°08'0 0.0
2014-Oct-29 23:33N 19°12' W 096°08'0 0.0
2014-Oct-29 22:33N 19°12' W 096°08'0 0.0
2014-Oct-29 21:33N 19°12' W 096°08'0 0.0
2014-Oct-29 20:33N 19°12' W 096°08'0 0.0
2014-Oct-29 19:33N 19°12' W 096°08'0 0.0
2014-Oct-29 18:33N 19°12' W 096°08'0 0.0
2014-Oct-29 17:33N 19°12' W 096°08'0 0.0
2014-Oct-29 16:34N 19°12' W 096°08'0 0.0
2014-Oct-29 15:33N 19°12' W 096°08'0 0.0
2014-Oct-29 14:33N 19°12' W 096°08'0 0.0
2014-Oct-29 13:33N 19°12' W 096°08'0 0.0
2014-Oct-29 12:33N 19°12' W 096°08'0 0.0
2014-Oct-29 11:33N 19°12' W 096°08'0 0.0
2014-Oct-29 10:33N 19°12' W 096°08'0 0.0
2014-Oct-29 09:33N 19°12' W 096°08'0 0.0
2014-Oct-29 08:33N 19°12' W 096°08'0 0.0
2014-Oct-29 07:33N 19°12' W 096°08'0 0.0
2014-Oct-29 06:33N 19°12' W 096°08'0 0.0
2014-Oct-29 05:33N 19°12' W 096°08'0 0.0
2014-Oct-29 04:33N 19°12' W 096°08'0 0.0
2014-Oct-29 03:33N 19°12' W 096°08'0 0.0
2014-Oct-29 02:33N 19°12' W 096°08'0 0.0
2014-Oct-29 01:33N 19°12' W 096°08'0 0.0
2014-Oct-29 00:33N 19°12' W 096°08'0 0.0
2014-Oct-28 23:33N 19°12' W 096°08'0 0.0
2014-Oct-28 22:33N 19°12' W 096°08'0 0.0
2014-Oct-28 21:33N 19°12' W 096°08'0 0.0
2014-Oct-28 20:33N 19°12' W 096°08'0 0.0
2014-Oct-28 19:33N 19°12' W 096°08'0 0.0
2014-Oct-28 18:33N 19°12' W 096°08'0 0.0
2014-Oct-28 17:33N 19°12' W 096°08'5 5.3
2014-Oct-28 16:33N 19°11' W 096°03'2 1.7
2014-Oct-28 15:33N 19°09' W 096°01'0 0.0
2014-Oct-28 14:33N 19°09' W 096°01'0 0.0
2014-Oct-28 13:34N 19°09' W 096°01'0 0.0
2014-Oct-28 12:34N 19°09' W 096°01'0 0.0
2014-Oct-28 11:33N 19°09' W 096°02'0 0.0
2014-Oct-28 10:34N 19°09' W 096°02'0 0.0
2014-Oct-28 09:33N 19°09' W 096°02'0 0.0
2014-Oct-28 08:33N 19°09' W 096°02'0 0.0
2014-Oct-28 07:33N 19°09' W 096°02'0 0.1
2014-Oct-28 06:33N 19°09' W 096°02'0 0.0
2014-Oct-28 05:33N 19°09' W 096°02'0 0.0
2014-Oct-28 04:33N 19°09' W 096°02'0 0.0
2014-Oct-28 03:33N 19°09' W 096°02'0 0.0
2014-Oct-28 02:33N 19°09' W 096°02'0 0.0
2014-Oct-28 01:33N 19°09' W 096°02'0 0.0
2014-Oct-28 00:34N 19°09' W 096°02'0 0.0
2014-Oct-27 23:33N 19°09' W 096°02'0 0.0
2014-Oct-27 22:33N 19°09' W 096°02'0 0.0
2014-Oct-27 21:33N 19°09' W 096°02'0 0.0
2014-Oct-27 20:33N 19°09' W 096°02'0 0.0
2014-Oct-27 19:32N 19°09' W 096°02'0 0.0
2014-Oct-27 18:33N 19°09' W 096°02'0 0.1
2014-Oct-27 17:33N 19°09' W 096°01'0 0.0
2014-Oct-27 16:34N 19°09' W 096°01'0 0.0
2014-Oct-27 15:33N 19°09' W 096°01'0 0.0
2014-Oct-27 14:33N 19°09' W 096°01'0 0.0
2014-Oct-27 13:33N 19°09' W 096°01'0 0.0
2014-Oct-27 12:33N 19°09' W 096°01'0 0.0
2014-Oct-27 11:34N 19°09' W 096°01'0 0.0
2014-Oct-27 10:33N 19°09' W 096°01'0 0.0
2014-Oct-27 09:33N 19°09' W 096°01'0 0.1
2014-Oct-27 08:33N 19°09' W 096°02'0 0.0
2014-Oct-27 07:33N 19°09' W 096°02'0 0.1
2014-Oct-27 06:33N 19°09' W 096°02'0 0.0
2014-Oct-27 05:31N 19°09' W 096°02'0 0.0
2014-Oct-27 04:34N 19°09' W 096°02'0 0.0
2014-Oct-27 03:31N 19°09' W 096°02'0 0.0
2014-Oct-27 02:34N 19°09' W 096°02'0 0.0
2014-Oct-27 01:33N 19°09' W 096°02'0 0.0
2014-Oct-27 00:34N 19°09' W 096°02'0 0.0
2014-Oct-26 23:33N 19°09' W 096°02'0 0.0
2014-Oct-26 22:33N 19°09' W 096°02'0 0.0
2014-Oct-26 21:29N 19°09' W 096°02'0 0.0
2014-Oct-26 20:33N 19°09' W 096°01'0 0.0
2014-Oct-26 19:33N 19°09' W 096°01'0 0.0
2014-Oct-26 18:24N 19°09' W 096°01'0 0.0
2014-Oct-26 13:06N 19°09' W 096°01'0 0.0
2014-Oct-26 12:15N 19°09' W 096°01'0 0.1
2014-Oct-26 11:21N 19°09' W 096°01'2 2.3
2014-Oct-26 10:33N 19°11' W 096°00'  
Track history (hours):
 
Tides and Currents Weather Stations Pressure Air Temp Water Temp Dewpoint Dewpoint Depression Visibility Wind Speed Wind Dir Waves Ship Positions

Macondo

Last reported at 2014-Nov-03 11:32 UTC. Time now 2014-Dec-21 19:28 UTC.
Position N 19°24' W 095°51'.
Warning: this ship's position is 48 days out of date.

Length 120 m; draft 6.6 m.

Type: Ship. MMSI: 371293000.

Date/timePositionNaut miles runAvg speedWind from/ knotsBaromVisibWave heightAir tempDewpointWater temp
2014-Nov-03 11:32N 19°24' W 095°51'8 8.4
2014-Nov-03 10:34N 19°18' W 095°56'1 1.1
2014-Nov-03 09:34N 19°19' W 095°57'1 1.3
2014-Nov-03 08:33N 19°20' W 095°57'3 3.1
2014-Nov-03 07:33N 19°17' W 095°58'8 8.3
2014-Nov-03 06:33N 19°11' W 096°03'5 4.5
2014-Nov-03 05:33N 19°12' W 096°08'0 0.0
2014-Nov-03 04:33N 19°12' W 096°08'0 0.0
2014-Nov-03 03:33N 19°12' W 096°08'0 0.0
2014-Nov-03 02:33N 19°12' W 096°08'0 0.0
2014-Nov-03 01:33N 19°12' W 096°08'0 0.0
2014-Nov-03 00:33N 19°12' W 096°08'0 0.0
2014-Nov-02 23:33N 19°12' W 096°08'0 0.0
2014-Nov-02 22:33N 19°12' W 096°08'0 0.0
2014-Nov-02 21:33N 19°12' W 096°08'0 0.0
2014-Nov-02 20:34N 19°12' W 096°08'0 0.0
2014-Nov-02 19:34N 19°12' W 096°08'0 0.0
2014-Nov-02 18:34N 19°12' W 096°08'0 0.0
2014-Nov-02 17:34N 19°12' W 096°08'0 0.0
2014-Nov-02 16:33N 19°12' W 096°08'0 0.0
2014-Nov-02 15:34N 19°12' W 096°08'0 0.0
2014-Nov-02 14:34N 19°12' W 096°08'0 0.0
2014-Nov-02 13:33N 19°12' W 096°08'0 0.0
2014-Nov-02 12:34N 19°12' W 096°08'0 0.0
2014-Nov-02 11:34N 19°12' W 096°08'0 0.0
2014-Nov-02 10:34N 19°12' W 096°08'0 0.0
2014-Nov-02 09:34N 19°12' W 096°08'0 0.0
2014-Nov-02 08:33N 19°12' W 096°08'0 0.0
2014-Nov-02 07:34N 19°12' W 096°08'0 0.0
2014-Nov-02 06:34N 19°12' W 096°08'0 0.0
2014-Nov-02 05:34N 19°12' W 096°08'0 0.0
2014-Nov-02 04:34N 19°12' W 096°08'0 0.0
2014-Nov-02 03:34N 19°12' W 096°08'0 0.0
2014-Nov-02 02:34N 19°12' W 096°08'0 0.0
2014-Nov-02 01:34N 19°12' W 096°08'0 0.0
2014-Nov-02 00:34N 19°12' W 096°08'0 0.0
2014-Nov-01 23:34N 19°12' W 096°08'0 0.0
2014-Nov-01 22:34N 19°12' W 096°08'0 0.0
2014-Nov-01 21:33N 19°12' W 096°08'0 0.0
2014-Nov-01 20:34N 19°12' W 096°08'0 0.0
2014-Nov-01 19:34N 19°12' W 096°08'0 0.0
2014-Nov-01 18:33N 19°12' W 096°08'0 0.0
2014-Nov-01 17:34N 19°12' W 096°08'0 0.0
2014-Nov-01 16:34N 19°12' W 096°08'0 0.0
2014-Nov-01 15:33N 19°12' W 096°08'0 0.0
2014-Nov-01 14:34N 19°12' W 096°08'0 0.0
2014-Nov-01 13:34N 19°12' W 096°08'0 0.0
2014-Nov-01 12:33N 19°12' W 096°08'0 0.0
2014-Nov-01 11:34N 19°12' W 096°08'0 0.0
2014-Nov-01 10:34N 19°12' W 096°08'0 0.0
2014-Nov-01 09:34N 19°12' W 096°08'0 0.0
2014-Nov-01 08:34N 19°12' W 096°08'0 0.0
2014-Nov-01 07:34N 19°12' W 096°08'0 0.0
2014-Nov-01 06:34N 19°12' W 096°08'0 0.0
2014-Nov-01 05:34N 19°12' W 096°08'0 0.0
2014-Nov-01 04:34N 19°12' W 096°08'0 0.0
2014-Nov-01 03:33N 19°12' W 096°08'0 0.0
2014-Nov-01 02:33N 19°12' W 096°08'0 0.0
2014-Nov-01 01:33N 19°12' W 096°08'0 0.0
2014-Nov-01 00:34N 19°12' W 096°08'0 0.0
2014-Oct-31 23:34N 19°12' W 096°08'0 0.0
2014-Oct-31 22:33N 19°12' W 096°08'0 0.0
2014-Oct-31 21:34N 19°12' W 096°08'0 0.0
2014-Oct-31 20:33N 19°12' W 096°08'0 0.0
2014-Oct-31 19:34N 19°12' W 096°08'0 0.0
2014-Oct-31 18:33N 19°12' W 096°08'0 0.0
2014-Oct-31 17:33N 19°12' W 096°08'0 0.0
2014-Oct-31 16:33N 19°12' W 096°08'0 0.0
2014-Oct-31 15:33N 19°12' W 096°08'0 0.0
2014-Oct-31 14:33N 19°12' W 096°08'0 0.0
2014-Oct-31 13:33N 19°12' W 096°08'0 0.0
2014-Oct-31 12:33N 19°12' W 096°08'0 0.0
2014-Oct-31 11:33N 19°12' W 096°08'0 0.1
2014-Oct-31 10:33N 19°12' W 096°08'0 0.0
2014-Oct-31 09:33N 19°12' W 096°08'0 0.0
2014-Oct-31 08:33N 19°12' W 096°08'0 0.0
2014-Oct-31 07:33N 19°12' W 096°08'0 0.0
2014-Oct-31 06:33N 19°12' W 096°08'0 0.1
2014-Oct-31 05:33N 19°12' W 096°08'0 0.0
2014-Oct-31 04:33N 19°12' W 096°08'0 0.0
2014-Oct-31 03:34N 19°12' W 096°08'0 0.0
2014-Oct-31 02:33N 19°12' W 096°08'0 0.0
2014-Oct-31 01:34N 19°12' W 096°08'0 0.0
2014-Oct-31 00:33N 19°12' W 096°08'0 0.0
2014-Oct-30 23:33N 19°12' W 096°08'0 0.0
2014-Oct-30 22:33N 19°12' W 096°08'0 0.0
2014-Oct-30 21:33N 19°12' W 096°08'0 0.0
2014-Oct-30 20:33N 19°12' W 096°08'0 0.0
2014-Oct-30 19:33N 19°12' W 096°08'0 0.0
2014-Oct-30 18:33N 19°12' W 096°08'0 0.0
2014-Oct-30 17:33N 19°12' W 096°08'0 0.0
2014-Oct-30 16:33N 19°12' W 096°08'0 0.0
2014-Oct-30 15:33N 19°12' W 096°08'0 0.0
2014-Oct-30 14:33N 19°12' W 096°08'0 0.0
2014-Oct-30 13:33N 19°12' W 096°08'0 0.0
2014-Oct-30 12:33N 19°12' W 096°08'0 0.0
2014-Oct-30 11:33N 19°12' W 096°08'0 0.0
2014-Oct-30 10:33N 19°12' W 096°08'0 0.0
2014-Oct-30 09:33N 19°12' W 096°08'0 0.0
2014-Oct-30 08:33N 19°12' W 096°08'0 0.0
2014-Oct-30 07:33N 19°12' W 096°08'0 0.0
2014-Oct-30 06:33N 19°12' W 096°08'0 0.0
2014-Oct-30 05:33N 19°12' W 096°08'0 0.0
2014-Oct-30 04:33N 19°12' W 096°08'0 0.0
2014-Oct-30 03:33N 19°12' W 096°08'0 0.0
2014-Oct-30 02:33N 19°12' W 096°08'0 0.0
2014-Oct-30 01:33N 19°12' W 096°08'0 0.0
2014-Oct-30 00:33N 19°12' W 096°08'0 0.0
2014-Oct-29 23:33N 19°12' W 096°08'0 0.0
2014-Oct-29 22:33N 19°12' W 096°08'0 0.0
2014-Oct-29 21:33N 19°12' W 096°08'0 0.0
2014-Oct-29 20:33N 19°12' W 096°08'0 0.0
2014-Oct-29 19:33N 19°12' W 096°08'0 0.0
2014-Oct-29 18:33N 19°12' W 096°08'0 0.0
2014-Oct-29 17:33N 19°12' W 096°08'0 0.0
2014-Oct-29 16:34N 19°12' W 096°08'0 0.0
2014-Oct-29 15:33N 19°12' W 096°08'0 0.0
2014-Oct-29 14:33N 19°12' W 096°08'0 0.0
2014-Oct-29 13:33N 19°12' W 096°08'0 0.0
2014-Oct-29 12:33N 19°12' W 096°08'0 0.0
2014-Oct-29 11:33N 19°12' W 096°08'0 0.0
2014-Oct-29 10:33N 19°12' W 096°08'0 0.0
2014-Oct-29 09:33N 19°12' W 096°08'0 0.0
2014-Oct-29 08:33N 19°12' W 096°08'0 0.0
2014-Oct-29 07:33N 19°12' W 096°08'0 0.0
2014-Oct-29 06:33N 19°12' W 096°08'0 0.0
2014-Oct-29 05:33N 19°12' W 096°08'0 0.0
2014-Oct-29 04:33N 19°12' W 096°08'0 0.0
2014-Oct-29 03:33N 19°12' W 096°08'0 0.0
2014-Oct-29 02:33N 19°12' W 096°08'0 0.0
2014-Oct-29 01:33N 19°12' W 096°08'0 0.0
2014-Oct-29 00:33N 19°12' W 096°08'0 0.0
2014-Oct-28 23:33N 19°12' W 096°08'0 0.0
2014-Oct-28 22:33N 19°12' W 096°08'0 0.0
2014-Oct-28 21:33N 19°12' W 096°08'0 0.0
2014-Oct-28 20:33N 19°12' W 096°08'0 0.0
2014-Oct-28 19:33N 19°12' W 096°08'0 0.0
2014-Oct-28 18:33N 19°12' W 096°08'0 0.0
2014-Oct-28 17:33N 19°12' W 096°08'5 5.3
2014-Oct-28 16:33N 19°11' W 096°03'2 1.7
2014-Oct-28 15:33N 19°09' W 096°01'0 0.0
2014-Oct-28 14:33N 19°09' W 096°01'0 0.0
2014-Oct-28 13:34N 19°09' W 096°01'0 0.0
2014-Oct-28 12:34N 19°09' W 096°01'0 0.0
2014-Oct-28 11:33N 19°09' W 096°02'0 0.0
2014-Oct-28 10:34N 19°09' W 096°02'0 0.0
2014-Oct-28 09:33N 19°09' W 096°02'0 0.0
2014-Oct-28 08:33N 19°09' W 096°02'0 0.0
2014-Oct-28 07:33N 19°09' W 096°02'0 0.1
2014-Oct-28 06:33N 19°09' W 096°02'0 0.0
2014-Oct-28 05:33N 19°09' W 096°02'0 0.0
2014-Oct-28 04:33N 19°09' W 096°02'0 0.0
2014-Oct-28 03:33N 19°09' W 096°02'0 0.0
2014-Oct-28 02:33N 19°09' W 096°02'0 0.0
2014-Oct-28 01:33N 19°09' W 096°02'0 0.0
2014-Oct-28 00:34N 19°09' W 096°02'0 0.0
2014-Oct-27 23:33N 19°09' W 096°02'0 0.0
2014-Oct-27 22:33N 19°09' W 096°02'0 0.0
2014-Oct-27 21:33N 19°09' W 096°02'0 0.0
2014-Oct-27 20:33N 19°09' W 096°02'0 0.0
2014-Oct-27 19:32N 19°09' W 096°02'0 0.0
2014-Oct-27 18:33N 19°09' W 096°02'0 0.1
2014-Oct-27 17:33N 19°09' W 096°01'0 0.0
2014-Oct-27 16:34N 19°09' W 096°01'0 0.0
2014-Oct-27 15:33N 19°09' W 096°01'0 0.0
2014-Oct-27 14:33N 19°09' W 096°01'0 0.0
2014-Oct-27 13:33N 19°09' W 096°01'0 0.0
2014-Oct-27 12:33N 19°09' W 096°01'0 0.0
2014-Oct-27 11:34N 19°09' W 096°01'0 0.0
2014-Oct-27 10:33N 19°09' W 096°01'0 0.0
2014-Oct-27 09:33N 19°09' W 096°01'0 0.1
2014-Oct-27 08:33N 19°09' W 096°02'0 0.0
2014-Oct-27 07:33N 19°09' W 096°02'0 0.1
2014-Oct-27 06:33N 19°09' W 096°02'0 0.0
2014-Oct-27 05:31N 19°09' W 096°02'0 0.0
2014-Oct-27 04:34N 19°09' W 096°02'0 0.0
2014-Oct-27 03:31N 19°09' W 096°02'0 0.0
2014-Oct-27 02:34N 19°09' W 096°02'0 0.0
2014-Oct-27 01:33N 19°09' W 096°02'0 0.0
2014-Oct-27 00:34N 19°09' W 096°02'0 0.0
2014-Oct-26 23:33N 19°09' W 096°02'0 0.0
2014-Oct-26 22:33N 19°09' W 096°02'0 0.0
2014-Oct-26 21:29N 19°09' W 096°02'0 0.0
2014-Oct-26 20:33N 19°09' W 096°01'0 0.0
2014-Oct-26 19:33N 19°09' W 096°01'0 0.0
2014-Oct-26 18:24N 19°09' W 096°01'0 0.0
2014-Oct-26 13:06N 19°09' W 096°01'0 0.0
2014-Oct-26 12:15N 19°09' W 096°01'0 0.1
2014-Oct-26 11:21N 19°09' W 096°01'2 2.3
2014-Oct-26 10:33N 19°11' W 096°00'  

Dump ship's entire track history